Time;durP1;ratioP1;P1;durP2;ratioP2;P2;SDS_P1;SDS_P2;PMS_P1;PMS_P2;Temp;Humidity;BMP_temperature;BMP_pressure;BME280_temperature;BME280_humidity;BME280_pressure;Samples;Min_cycle;Max_cycle;Signal;HPM_P1;HPM_P2
2023/05/02 00:00:46;;;;;;;4.75;3.58;;;8.40;99.90;;;;;;5028326;28;20205;-66
2023/05/02 00:03:13;;;;;;;3.58;3.20;;;8.40;99.90;;;;;;5015079;28;20205;-66
2023/05/02 00:05:41;;;;;;;4.55;3.58;;;8.40;99.90;;;;;;5028648;28;20221;-66
2023/05/02 00:08:08;;;;;;;3.50;3.20;;;8.30;99.90;;;;;;5010173;28;20206;-66
2023/05/02 00:10:34;;;;;;;3.53;3.22;;;8.30;99.90;;;;;;5010321;28;20234;-66
2023/05/02 00:13:03;;;;;;;4.00;2.83;;;8.20;99.90;;;;;;5009465;28;20207;-66
2023/05/02 00:15:29;;;;;;;4.13;3.63;;;8.20;99.90;;;;;;5009568;28;20222;-66
2023/05/02 00:17:56;;;;;;;3.35;3.05;;;8.10;99.90;;;;;;5009784;28;20202;-66
2023/05/02 00:20:23;;;;;;;3.70;3.25;;;8.10;99.90;;;;;;5010019;28;20209;-65
2023/05/02 00:22:50;;;;;;;5.43;3.33;;;8.00;99.90;;;;;;5028318;28;20237;-66
2023/05/02 00:25:17;;;;;;;4.05;3.65;;;7.90;99.90;;;;;;5023695;28;20223;-66
2023/05/02 00:27:45;;;;;;;3.65;3.10;;;7.90;99.90;;;;;;5009147;28;20225;-66
2023/05/02 00:30:14;;;;;;;4.57;4.00;;;7.80;99.90;;;;;;5023326;28;20625;-66
2023/05/02 00:32:41;;;;;;;3.85;3.33;;;7.70;99.90;;;;;;5028397;28;20209;-66
2023/05/02 00:35:08;;;;;;;5.70;3.58;;;7.70;99.90;;;;;;5028990;28;20324;-66
2023/05/02 00:37:35;;;;;;;4.60;4.03;;;7.70;99.90;;;;;;5029621;28;20206;-66
2023/05/02 00:40:02;;;;;;;5.22;3.95;;;7.70;99.90;;;;;;5029009;28;20660;-66
2023/05/02 00:42:30;;;;;;;5.57;3.53;;;7.70;99.90;;;;;;5029115;28;20233;-66
2023/05/02 00:44:57;;;;;;;4.55;4.10;;;7.80;99.90;;;;;;5028965;28;20229;-66
2023/05/02 00:47:25;;;;;;;5.65;3.95;;;7.80;99.90;;;;;;5029642;28;20292;-66
2023/05/02 00:49:52;;;;;;;6.95;4.47;;;7.90;99.90;;;;;;5028659;28;20252;-66
2023/05/02 00:52:19;;;;;;;5.65;4.45;;;7.90;99.90;;;;;;5028709;28;20212;-66
2023/05/02 00:54:47;;;;;;;5.65;4.65;;;8.00;99.90;;;;;;5029575;28;20585;-66
2023/05/02 00:57:14;;;;;;;4.60;4.07;;;8.10;99.90;;;;;;5028955;28;20249;-66
2023/05/02 00:59:41;;;;;;;5.40;3.72;;;8.10;99.90;;;;;;5029265;28;20201;-66
2023/05/02 01:02:21;;;;;;;5.90;4.18;;;8.10;99.90;;;;;;5028784;28;20204;-66
2023/05/02 01:05:00;;;;;;;4.20;3.80;;;8.10;99.90;;;;;;5028495;28;20228;-66
2023/05/02 01:10:05;;;;;;;5.93;4.25;;;8.10;99.90;;;;;;5038035;28;20217;-70
2023/05/02 01:12:42;;;;;;;5.72;4.05;;;8.10;99.90;;;;;;5049036;28;20212;-70
2023/05/02 01:15:12;;;;;;;5.30;4.30;;;8.10;99.90;;;;;;5034842;28;20207;-70
2023/05/02 01:17:40;;;;;;;5.45;4.32;;;8.20;99.90;;;;;;5049005;28;20205;-70
2023/05/02 01:20:14;;;;;;;4.72;4.28;;;8.20;99.90;;;;;;5049222;28;20255;-70
2023/05/02 01:22:42;;;;;;;4.60;3.83;;;8.20;99.90;;;;;;5048701;28;20205;-70
2023/05/02 01:25:18;;;;;;;5.20;3.80;;;8.30;99.90;;;;;;5049347;28;20213;-70
2023/05/02 01:27:56;;;;;;;5.88;4.20;;;8.30;99.90;;;;;;5049131;28;20193;-70
2023/05/02 01:30:27;;;;;;;6.25;4.47;;;8.30;99.90;;;;;;5049223;28;20687;-70
2023/05/02 01:32:57;;;;;;;4.35;3.95;;;8.30;99.90;;;;;;5048942;28;20619;-70
2023/05/02 01:35:26;;;;;;;6.88;4.43;;;8.30;99.90;;;;;;5049345;28;20296;-70
2023/05/02 01:37:55;;;;;;;6.53;4.00;;;8.30;99.90;;;;;;5049616;28;20197;-70
2023/05/02 01:40:24;;;;;;;4.30;3.90;;;8.30;99.90;;;;;;5050472;28;20254;-70
2023/05/02 01:42:53;;;;;;;5.05;4.18;;;8.20;99.90;;;;;;5049234;28;20201;-69
2023/05/02 01:45:21;;;;;;;5.13;4.00;;;8.30;99.90;;;;;;5052658;28;20216;-69
2023/05/02 01:47:50;;;;;;;4.70;3.83;;;8.30;99.90;;;;;;5052645;28;20255;-70
2023/05/02 01:50:21;;;;;;;4.90;3.95;;;8.30;99.90;;;;;;5052813;28;20193;-69
2023/05/02 01:52:51;;;;;;;4.70;3.70;;;8.30;99.90;;;;;;5052622;28;20199;-70
2023/05/02 01:55:18;;;;;;;6.57;4.75;;;8.30;99.90;;;;;;5053651;28;20588;-69
2023/05/02 01:57:47;;;;;;;6.25;3.50;;;8.30;99.90;;;;;;5052574;28;20197;-70
2023/05/02 02:00:17;;;;;;;4.45;3.92;;;8.30;99.90;;;;;;5052472;28;20560;-69
2023/05/02 02:02:45;;;;;;;4.78;4.22;;;8.20;99.90;;;;;;5051713;28;20570;-70
2023/05/02 02:05:13;;;;;;;4.82;3.85;;;8.20;99.90;;;;;;5052268;28;20274;-69
2023/05/02 02:07:40;;;;;;;5.43;3.63;;;8.10;99.90;;;;;;5053439;28;20205;-69
2023/05/02 02:10:08;;;;;;;7.80;4.10;;;8.10;99.90;;;;;;5053351;28;20251;-69
2023/05/02 02:12:39;;;;;;;4.22;3.30;;;8.00;99.90;;;;;;5052428;28;20197;-69
2023/05/02 02:15:13;;;;;;;4.15;3.72;;;8.00;99.90;;;;;;5052322;28;20201;-69
2023/05/02 02:17:45;;;;;;;4.18;3.58;;;7.90;99.90;;;;;;5052929;28;20208;-70
2023/05/02 02:20:15;;;;;;;5.75;4.68;;;7.90;99.90;;;;;;5051966;28;20271;-70
2023/05/02 02:22:44;;;;;;;5.03;4.45;;;7.80;99.90;;;;;;5051607;28;20193;-69
2023/05/02 02:25:13;;;;;;;4.18;3.78;;;7.80;99.90;;;;;;5051840;28;20217;-69
2023/05/02 02:27:40;;;;;;;5.90;4.55;;;7.70;99.90;;;;;;5052453;28;20204;-69
2023/05/02 02:30:09;;;;;;;4.20;3.85;;;7.70;99.90;;;;;;5051737;28;20197;-69
2023/05/02 02:32:36;;;;;;;3.97;3.63;;;7.60;99.90;;;;;;5051677;28;20259;-69
2023/05/02 02:35:03;;;;;;;4.05;3.30;;;7.60;99.90;;;;;;5051760;28;20726;-69
2023/05/02 02:37:32;;;;;;;4.78;3.92;;;7.50;99.90;;;;;;5052877;28;20580;-69
2023/05/02 02:40:05;;;;;;;4.25;3.53;;;7.50;99.90;;;;;;5051841;28;20209;-69
2023/05/02 02:42:39;;;;;;;5.35;4.85;;;7.40;99.90;;;;;;5051894;28;20204;-69
2023/05/02 02:45:16;;;;;;;3.75;3.45;;;7.40;99.90;;;;;;5051952;28;20229;-73
2023/05/02 02:47:49;;;;;;;5.18;3.55;;;7.40;99.90;;;;;;5052468;28;20295;-70
2023/05/02 02:50:20;;;;;;;4.80;4.35;;;7.40;99.90;;;;;;5051473;28;20201;-70
2023/05/02 02:52:55;;;;;;;8.07;3.47;;;7.40;99.90;;;;;;5050947;28;20676;-70
2023/05/02 02:55:31;;;;;;;3.95;3.58;;;7.30;99.90;;;;;;5050633;28;20220;-70
2023/05/02 02:58:03;;;;;;;3.28;2.97;;;7.30;99.90;;;;;;5050923;28;20208;-70
2023/05/02 03:00:33;;;;;;;6.57;3.78;;;7.30;99.90;;;;;;5051623;28;20608;-69
2023/05/02 03:03:00;;;;;;;4.53;3.60;;;7.20;99.90;;;;;;5050759;28;20735;-69
2023/05/02 03:05:29;;;;;;;3.80;3.45;;;7.20;99.90;;;;;;5051240;28;20221;-69
2023/05/02 03:07:59;;;;;;;4.13;3.35;;;7.20;99.90;;;;;;5050584;28;20208;-69
2023/05/02 03:10:26;;;;;;;4.35;3.67;;;7.20;99.90;;;;;;5051317;28;20221;-70
2023/05/02 03:12:54;;;;;;;4.75;4.00;;;7.20;99.90;;;;;;5050420;28;20754;-69
2023/05/02 03:15:55;;;;;;;3.47;3.17;;;7.20;99.90;;;;;;5051138;28;20587;-69
2023/05/02 03:18:21;;;;;;;3.58;3.25;;;7.20;99.90;;;;;;5050790;28;20207;-70
2023/05/02 03:20:48;;;;;;;5.57;3.80;;;7.20;99.90;;;;;;5050722;28;20201;-69
2023/05/02 03:23:16;;;;;;;5.25;4.22;;;7.30;99.90;;;;;;5050456;28;20255;-69
2023/05/02 03:25:43;;;;;;;4.82;4.20;;;7.30;99.90;;;;;;5050893;28;20217;-68
2023/05/02 03:28:09;;;;;;;4.95;3.42;;;7.40;99.90;;;;;;5050248;28;20527;-69
2023/05/02 03:30:39;;;;;;;4.90;4.15;;;7.40;99.90;;;;;;5050790;28;20656;-70
2023/05/02 03:33:07;;;;;;;4.80;3.90;;;7.40;99.90;;;;;;5026099;28;20609;-69
2023/05/02 03:35:34;;;;;;;4.53;4.13;;;7.50;99.90;;;;;;5023409;28;20302;-69
2023/05/02 03:38:01;;;;;;;4.93;4.18;;;7.50;99.90;;;;;;5026719;28;20205;-69
2023/05/02 03:40:29;;;;;;;4.70;3.55;;;7.60;99.90;;;;;;5024305;28;20229;-69
2023/05/02 03:42:55;;;;;;;4.32;3.83;;;7.60;99.90;;;;;;5026123;28;20213;-69
2023/05/02 03:45:22;;;;;;;4.90;4.20;;;7.60;99.90;;;;;;5024611;28;20225;-69
2023/05/02 03:47:48;;;;;;;5.20;3.80;;;7.70;99.90;;;;;;5020897;28;20199;-68
2023/05/02 03:50:15;;;;;;;4.70;4.20;;;7.70;99.90;;;;;;5014496;28;20202;-69
2023/05/02 03:52:42;;;;;;;5.85;4.20;;;7.80;99.90;;;;;;5023654;28;20588;-69
2023/05/02 03:55:09;;;;;;;6.30;5.10;;;7.90;99.90;;;;;;5026048;28;20664;-69
2023/05/02 03:57:37;;;;;;;4.57;4.18;;;8.00;99.90;;;;;;5023170;28;20205;-69
2023/05/02 04:00:05;;;;;;;6.05;5.30;;;8.00;99.90;;;;;;5025915;28;20550;-69
2023/05/02 04:02:31;;;;;;;6.90;4.80;;;8.10;99.90;;;;;;5022690;28;20209;-70
2023/05/02 04:04:58;;;;;;;7.28;4.25;;;8.20;99.90;;;;;;5024421;28;20635;-69
2023/05/02 04:07:25;;;;;;;5.38;4.88;;;8.20;99.90;;;;;;5023830;28;20605;-69
2023/05/02 04:09:51;;;;;;;5.40;4.80;;;8.30;99.90;;;;;;5024888;28;20226;-69
2023/05/02 04:12:18;;;;;;;5.32;4.57;;;8.30;99.90;;;;;;5020612;28;20454;-69
2023/05/02 04:14:46;;;;;;;4.43;4.03;;;8.30;99.90;;;;;;5025177;28;20199;-69
2023/05/02 04:17:14;;;;;;;5.40;4.22;;;8.40;99.90;;;;;;5024772;28;20248;-69
2023/05/02 04:19:42;;;;;;;5.10;3.72;;;8.40;99.90;;;;;;5023439;28;20202;-69
2023/05/02 04:22:08;;;;;;;4.38;3.97;;;8.50;99.90;;;;;;5025007;28;20208;-69
2023/05/02 04:24:35;;;;;;;4.60;4.20;;;8.50;99.90;;;;;;5047914;28;20197;-69
2023/05/02 04:27:02;;;;;;;7.15;4.55;;;8.60;99.90;;;;;;5046804;28;20224;-69
2023/05/02 04:29:28;;;;;;;5.07;4.28;;;8.70;99.90;;;;;;5049209;28;20201;-69
2023/05/02 04:31:57;;;;;;;4.80;4.40;;;8.70;99.90;;;;;;5050003;28;20196;-69
2023/05/02 04:34:23;;;;;;;6.55;5.20;;;8.70;99.90;;;;;;5049714;28;20615;-69
2023/05/02 04:36:50;;;;;;;6.00;5.13;;;8.70;99.90;;;;;;5049147;28;20594;-69
2023/05/02 04:39:16;;;;;;;4.80;4.30;;;8.80;99.90;;;;;;5050969;28;20695;-69
2023/05/02 04:41:43;;;;;;;4.35;3.95;;;8.80;99.90;;;;;;5052543;28;20197;-69
2023/05/02 04:44:10;;;;;;;4.63;4.22;;;8.80;99.90;;;;;;5051936;28;20624;-69
2023/05/02 04:46:36;;;;;;;5.82;4.10;;;8.80;99.90;;;;;;5052331;28;20223;-69
2023/05/02 04:49:04;;;;;;;6.50;4.50;;;8.90;99.90;;;;;;5051821;28;20672;-69
2023/05/02 04:51:31;;;;;;;5.30;4.80;;;8.90;99.90;;;;;;5051809;28;20696;-69
2023/05/02 04:56:26;;;;;;;5.03;4.53;;;9.00;99.90;;;;;;5043364;28;20228;-69
2023/05/02 04:58:52;;;;;;;5.05;4.55;;;9.00;99.90;;;;;;5050633;28;20208;-68
2023/05/02 05:01:19;;;;;;;5.40;4.80;;;9.00;99.90;;;;;;5050839;28;20209;-69
2023/05/02 05:03:46;;;;;;;5.75;3.90;;;9.10;99.90;;;;;;5050720;28;20797;-69
2023/05/02 05:06:14;;;;;;;4.50;4.10;;;9.10;99.90;;;;;;5049457;28;20217;-69
2023/05/02 05:08:41;;;;;;;7.25;4.90;;;9.10;99.90;;;;;;5049596;28;20204;-68
2023/05/02 05:11:07;;;;;;;4.95;4.28;;;9.10;99.90;;;;;;5049358;28;20201;-68
2023/05/02 05:13:34;;;;;;;4.80;4.07;;;9.10;99.90;;;;;;5049869;28;20613;-69
2023/05/02 05:16:01;;;;;;;5.93;4.15;;;9.10;99.90;;;;;;5049403;28;20229;-69
2023/05/02 05:18:28;;;;;;;5.75;5.00;;;9.20;99.90;;;;;;5051152;28;20193;-68
2023/05/02 05:20:55;;;;;;;5.07;4.10;;;9.20;99.90;;;;;;5053240;28;20798;-68
2023/05/02 05:23:23;;;;;;;4.57;4.18;;;9.30;99.90;;;;;;5053334;28;20571;-68
2023/05/02 05:25:50;;;;;;;5.57;4.78;;;9.40;99.90;;;;;;5053276;28;20329;-68
2023/05/02 05:28:17;;;;;;;5.30;4.75;;;9.40;99.90;;;;;;5053035;28;20284;-69
2023/05/02 05:30:43;;;;;;;5.72;4.20;;;9.50;99.90;;;;;;5053612;28;20197;-68
2023/05/02 05:33:10;;;;;;;5.65;4.85;;;9.60;99.90;;;;;;5053354;28;20205;-68
2023/05/02 05:35:37;;;;;;;6.30;5.32;;;9.70;99.90;;;;;;5053749;28;20217;-68
2023/05/02 05:38:03;;;;;;;6.07;5.47;;;9.70;99.90;;;;;;5053008;28;20247;-68
2023/05/02 05:40:31;;;;;;;5.13;4.63;;;9.80;99.90;;;;;;5054022;28;20274;-68
2023/05/02 05:42:58;;;;;;;5.78;5.10;;;9.90;99.90;;;;;;5055475;28;20201;-68
2023/05/02 05:45:25;;;;;;;6.18;5.22;;;9.90;99.90;;;;;;5051629;28;20283;-68
2023/05/02 05:47:54;;;;;;;7.05;5.10;;;10.00;99.90;;;;;;5050730;28;20204;-68
2023/05/02 05:50:21;;;;;;;10.80;6.28;;;10.10;99.90;;;;;;5054565;28;20207;-67
2023/05/02 05:52:48;;;;;;;5.72;5.20;;;10.10;99.90;;;;;;5054210;28;20193;-68
2023/05/02 05:55:15;;;;;;;5.65;4.95;;;10.20;99.90;;;;;;5053608;28;20225;-68
2023/05/02 05:57:43;;;;;;;5.90;5.20;;;10.20;99.90;;;;;;5054335;28;20727;-68
2023/05/02 06:00:10;;;;;;;7.30;5.85;;;10.20;99.90;;;;;;5053145;28;20699;-67
2023/05/02 06:02:37;;;;;;;6.03;5.45;;;10.30;99.90;;;;;;5053864;28;20197;-68
2023/05/02 06:05:04;;;;;;;6.63;5.90;;;10.30;99.90;;;;;;5054187;28;20216;-68
2023/05/02 06:07:31;;;;;;;6.10;4.93;;;10.30;99.90;;;;;;5041172;28;20280;-68
2023/05/02 06:09:57;;;;;;;6.68;4.93;;;10.30;99.90;;;;;;5043025;28;20703;-68
2023/05/02 06:12:24;;;;;;;5.75;5.15;;;10.30;99.90;;;;;;5053634;28;20579;-68
2023/05/02 06:14:52;;;;;;;6.18;5.57;;;10.30;99.90;;;;;;5053753;28;20205;-68
2023/05/02 06:17:19;;;;;;;5.47;4.90;;;10.40;99.90;;;;;;5026109;28;20221;-68
2023/05/02 06:19:46;;;;;;;7.47;4.82;;;10.40;99.90;;;;;;5034726;28;20432;-68
2023/05/02 06:22:13;;;;;;;7.13;6.43;;;10.40;99.90;;;;;;5033074;28;20213;-68
2023/05/02 06:24:39;;;;;;;6.72;5.88;;;10.50;99.90;;;;;;5034626;28;20198;-68
2023/05/02 06:27:06;;;;;;;7.32;6.47;;;10.50;99.90;;;;;;5034727;28;20633;-68
2023/05/02 06:29:33;;;;;;;7.43;6.63;;;10.50;99.90;;;;;;5038507;28;20255;-68
2023/05/02 06:32:01;;;;;;;8.45;6.90;;;10.50;99.90;;;;;;5049044;28;20224;-68
2023/05/02 06:34:27;;;;;;;8.40;5.93;;;10.50;99.90;;;;;;5033367;28;20204;-68
2023/05/02 06:36:56;;;;;;;6.75;6.07;;;10.50;99.90;;;;;;5033266;28;20221;-68
2023/05/02 06:39:22;;;;;;;10.93;7.00;;;10.50;99.90;;;;;;5025341;28;20621;-68
2023/05/02 06:41:49;;;;;;;7.95;6.32;;;10.60;99.90;;;;;;5033416;28;20401;-68
2023/05/02 06:44:16;;;;;;;7.28;6.57;;;10.60;99.90;;;;;;5032526;28;20210;-68
2023/05/02 06:46:43;;;;;;;9.50;6.60;;;10.70;99.90;;;;;;5033184;28;20247;-67
2023/05/02 06:49:11;;;;;;;10.07;7.13;;;10.70;99.90;;;;;;5032440;28;20252;-67
2023/05/02 06:51:37;;;;;;;9.13;7.25;;;10.80;99.90;;;;;;5032918;28;20194;-67
2023/05/02 06:54:04;;;;;;;10.30;7.85;;;10.90;99.90;;;;;;5031950;28;20232;-67
2023/05/02 06:56:31;;;;;;;8.82;7.13;;;11.10;99.90;;;;;;5033234;28;20442;-68
2023/05/02 06:58:57;;;;;;;7.95;6.65;;;11.10;99.90;;;;;;5032734;28;20225;-68
2023/05/02 07:01:24;;;;;;;9.52;7.03;;;11.10;99.90;;;;;;5031416;28;20229;-68
2023/05/02 07:03:51;;;;;;;9.35;8.18;;;11.20;99.90;;;;;;5030880;28;20209;-67
2023/05/02 07:06:19;;;;;;;11.25;7.90;;;11.20;99.90;;;;;;5029930;28;20221;-67
2023/05/02 07:08:46;;;;;;;10.48;8.30;;;11.20;99.90;;;;;;5055209;22;20245;-92
2023/05/02 07:11:13;;;;;;;9.95;8.52;;;11.20;99.90;;;;;;5044620;28;20212;-92
2023/05/02 07:13:39;;;;;;;12.65;9.85;;;11.30;99.90;;;;;;5048921;28;20231;-92
2023/05/02 07:16:07;;;;;;;10.25;8.73;;;11.30;99.90;;;;;;5054643;28;20205;-91
2023/05/02 07:18:56;;;;;;;9.82;7.65;;;11.30;99.90;;;;;;5055028;28;20236;-92
2023/05/02 07:21:24;;;;;;;8.82;7.93;;;11.30;99.90;;;;;;5039680;28;20216;-92
2023/05/02 07:23:51;;;;;;;10.82;8.10;;;11.30;99.90;;;;;;5056093;28;20201;-91
2023/05/02 07:26:22;;;;;;;11.00;8.75;;;11.40;99.90;;;;;;5055366;28;21101;-90
2023/05/02 07:28:50;;;;;;;13.35;9.60;;;11.30;99.90;;;;;;5054856;28;20617;-90
2023/05/02 07:31:17;;;;;;;11.65;9.40;;;11.40;99.90;;;;;;5054231;28;20205;-90
2023/05/02 07:33:45;;;;;;;11.10;8.90;;;11.40;99.90;;;;;;5054066;28;20197;-89
2023/05/02 07:36:12;;;;;;;13.40;9.90;;;11.40;99.90;;;;;;5051099;28;20215;-89
2023/05/02 07:41:27;;;;;;;13.90;10.48;;;11.50;99.90;;;;;;5040370;28;20205;-92
2023/05/02 07:43:54;;;;;;;12.35;9.35;;;11.60;99.90;;;;;;5059538;28;20201;-91
2023/05/02 07:46:21;;;;;;;13.20;10.98;;;11.70;99.90;;;;;;5058107;28;20215;-93
2023/05/02 07:48:48;;;;;;;12.98;10.68;;;11.70;99.90;;;;;;5071921;28;20217;-92
2023/05/02 07:51:15;;;;;;;13.50;11.35;;;11.80;99.90;;;;;;5054092;28;20209;-91
2023/05/02 07:53:43;;;;;;;14.32;11.27;;;11.90;99.90;;;;;;5053395;28;20205;-91
2023/05/02 07:56:11;;;;;;;14.10;10.52;;;12.00;99.90;;;;;;5053908;28;20197;-92
2023/05/02 07:58:38;;;;;;;16.20;10.82;;;12.00;99.90;;;;;;5053995;28;20245;-92
2023/05/02 08:01:05;;;;;;;12.23;10.15;;;12.20;99.90;;;;;;5054013;28;20205;-92
2023/05/02 08:03:32;;;;;;;13.35;9.65;;;12.40;99.90;;;;;;5054375;28;20209;-91
2023/05/02 08:06:00;;;;;;;12.15;9.75;;;12.40;99.90;;;;;;5053695;28;20207;-91
2023/05/02 08:08:27;;;;;;;13.15;10.35;;;12.70;99.90;;;;;;5053602;28;20272;-92
2023/05/02 08:10:55;;;;;;;12.75;11.07;;;12.80;99.90;;;;;;5055513;28;20208;-92
2023/05/02 08:13:22;;;;;;;13.40;11.67;;;12.90;99.90;;;;;;5073637;28;20205;-92
2023/05/02 08:15:49;;;;;;;15.15;10.80;;;13.00;99.90;;;;;;5055206;28;20465;-93
2023/05/02 08:21:38;;;;;;;14.37;11.10;;;13.10;99.90;;;;;;5047343;28;20464;-69
2023/05/02 08:24:05;;;;;;;14.10;11.80;;;13.10;99.90;;;;;;5048332;28;20455;-68
2023/05/02 08:26:33;;;;;;;19.40;11.37;;;13.20;99.90;;;;;;5020244;28;20582;-68
2023/05/02 08:29:01;;;;;;;11.50;10.27;;;13.00;99.90;;;;;;5028576;28;20471;-68
2023/05/02 08:31:29;;;;;;;16.10;12.03;;;12.90;99.90;;;;;;5010753;28;20468;-66
2023/05/02 08:33:56;;;;;;;14.37;10.97;;;12.90;99.90;;;;;;5028338;28;20979;-67
2023/05/02 08:36:25;;;;;;;16.00;12.67;;;12.80;99.90;;;;;;5028384;28;20529;-67
2023/05/02 08:38:52;;;;;;;14.87;11.97;;;12.70;99.90;;;;;;5029105;28;20460;-67
2023/05/02 08:41:19;;;;;;;13.87;11.37;;;12.70;99.90;;;;;;5029034;28;20469;-67
2023/05/02 08:43:47;;;;;;;16.20;12.17;;;12.90;99.90;;;;;;5028807;28;20460;-68
2023/05/02 08:46:16;;;;;;;16.37;12.87;;;13.10;99.90;;;;;;5028398;28;20522;-67
2023/05/02 08:48:44;;;;;;;14.70;11.67;;;13.30;99.90;;;;;;5028767;28;20465;-66
2023/05/02 08:51:15;;;;;;;14.80;11.50;;;13.50;99.90;;;;;;5017799;28;20466;-67
2023/05/02 08:53:43;;;;;;;18.93;12.90;;;13.80;99.90;;;;;;5030000;28;20479;-67
2023/05/02 08:56:11;;;;;;;15.63;11.67;;;14.10;99.90;;;;;;5025301;28;20484;-67
2023/05/02 08:58:40;;;;;;;13.27;9.97;;;14.30;99.90;;;;;;5032932;28;20464;-68
2023/05/02 09:01:14;;;;;;;13.57;12.17;;;14.50;99.90;;;;;;5022693;28;20563;-67
2023/05/02 09:03:44;;;;;;;13.60;11.03;;;14.70;99.90;;;;;;5022413;28;20468;-67
2023/05/02 09:06:13;;;;;;;14.03;10.83;;;14.80;99.90;;;;;;5037395;28;21081;-67
2023/05/02 09:08:41;;;;;;;15.77;11.47;;;15.00;99.90;;;;;;5032769;28;20495;-68
2023/05/02 09:11:10;;;;;;;13.07;10.33;;;15.20;99.90;;;;;;5032268;28;20468;-67
2023/05/02 09:13:38;;;;;;;13.80;11.50;;;15.40;99.90;;;;;;5024150;28;20467;-66
2023/05/02 09:16:07;;;;;;;15.27;10.20;;;15.60;99.90;;;;;;5032525;28;20483;-69
2023/05/02 09:18:37;;;;;;;14.03;10.77;;;15.70;99.90;;;;;;5031900;28;20464;-68
2023/05/02 09:21:07;;;;;;;13.87;10.30;;;15.70;99.90;;;;;;5032208;28;20478;-68
2023/05/02 09:23:39;;;;;;;13.80;10.73;;;15.80;99.90;;;;;;5024420;28;20472;-68
2023/05/02 09:26:14;;;;;;;10.93;9.80;;;15.80;99.90;;;;;;5031905;28;20530;-67
2023/05/02 09:28:44;;;;;;;11.80;9.53;;;15.90;99.90;;;;;;5025903;28;20963;-68
2023/05/02 09:31:13;;;;;;;11.03;9.20;;;16.10;99.90;;;;;;5031090;28;20519;-68
2023/05/02 09:33:42;;;;;;;13.17;10.07;;;16.10;99.90;;;;;;5017012;28;20923;-68
2023/05/02 09:36:12;;;;;;;13.13;9.43;;;16.40;99.90;;;;;;5031752;28;20858;-68
2023/05/02 09:38:40;;;;;;;12.73;8.83;;;16.60;99.90;;;;;;5019386;28;20842;-68
2023/05/02 09:41:07;;;;;;;10.17;8.90;;;16.80;99.90;;;;;;5026368;28;20886;-68
2023/05/02 09:43:33;;;;;;;11.70;8.00;;;16.70;99.90;;;;;;5031817;28;20471;-68
2023/05/02 09:46:02;;;;;;;10.27;8.40;;;16.80;99.90;;;;;;5032382;28;20476;-68
2023/05/02 09:48:30;;;;;;;10.60;8.27;;;16.80;99.90;;;;;;5031306;28;20487;-68
2023/05/02 09:50:58;;;;;;;9.33;8.23;;;16.70;99.90;;;;;;5034205;28;20468;-68
2023/05/02 09:53:26;;;;;;;9.50;8.50;;;16.70;99.90;;;;;;5038541;28;20491;-68
2023/05/02 09:56:00;;;;;;;10.70;8.83;;;17.00;99.90;;;;;;5031165;28;20499;-68
2023/05/02 09:58:27;;;;;;;10.13;9.00;;;17.80;99.90;;;;;;5028937;28;20477;-68
2023/05/02 10:00:54;;;;;;;11.90;8.93;;;19.20;99.90;;;;;;5027149;28;20468;-68
2023/05/02 10:03:24;;;;;;;9.37;8.33;;;20.10;99.90;;;;;;5031143;28;20464;-68
2023/05/02 10:05:52;;;;;;;10.40;8.80;;;20.90;99.90;;;;;;5026121;28;20485;-68
2023/05/02 10:08:21;;;;;;;10.27;8.27;;;21.20;99.90;;;;;;5021519;28;20484;-69
2023/05/02 10:10:52;;;;;;;10.60;9.20;;;21.30;99.90;;;;;;5032330;28;20519;-67
2023/05/02 10:13:21;;;;;;;11.43;9.30;;;21.30;99.90;;;;;;5031593;28;20461;-68
2023/05/02 10:15:54;;;;;;;9.87;8.87;;;21.70;99.90;;;;;;5032721;28;20495;-68
2023/05/02 10:18:26;;;;;;;9.43;7.50;;;21.90;99.90;;;;;;5031539;28;20460;-67
2023/05/02 10:20:57;;;;;;;11.13;9.63;;;21.60;99.90;;;;;;5031803;28;20855;-68
2023/05/02 10:23:28;;;;;;;10.37;8.97;;;20.70;99.90;;;;;;5023265;28;20469;-68
2023/05/02 10:25:57;;;;;;;9.87;8.87;;;19.90;99.90;;;;;;5031835;28;20480;-66
2023/05/02 10:28:24;;;;;;;9.37;8.37;;;19.30;99.90;;;;;;5031412;28;20495;-67
2023/05/02 10:30:53;;;;;;;9.47;8.53;;;18.80;99.90;;;;;;5032158;28;20832;-67
2023/05/02 10:33:20;;;;;;;9.40;8.40;;;18.50;99.90;;;;;;5022097;28;20465;-66
2023/05/02 10:35:47;;;;;;;11.13;9.60;;;18.20;99.90;;;;;;5031939;28;20484;-67
2023/05/02 10:38:18;;;;;;;10.57;8.83;;;18.00;99.90;;;;;;5031078;28;20468;-67
2023/05/02 10:40:54;;;;;;;9.50;8.60;;;17.70;99.90;;;;;;5031447;28;20563;-67
2023/05/02 10:43:27;;;;;;;9.33;8.27;;;18.10;99.90;;;;;;5030389;28;20470;-68
2023/05/02 10:45:54;;;;;;;7.70;7.00;;;19.10;99.90;;;;;;5031131;28;20488;-67
2023/05/02 10:48:23;;;;;;;7.77;6.80;;;20.60;99.90;;;;;;5030776;28;20484;-68
2023/05/02 10:50:52;;;;;;;8.97;8.10;;;21.90;99.90;;;;;;5023461;28;20468;-68
2023/05/02 10:53:27;;;;;;;7.67;6.90;;;22.90;99.90;;;;;;5031018;28;20473;-67
2023/05/02 10:56:14;;;;;;;6.80;6.20;;;23.20;99.80;;;;;;5031366;28;20491;-68
2023/05/02 10:58:41;;;;;;;7.90;7.10;;;23.30;99.60;;;;;;5031332;28;20466;-68
2023/05/02 11:01:39;;;;;;;7.60;6.80;;;23.50;99.90;;;;;;5031289;28;20461;-68
2023/05/02 11:04:07;;;;;;;9.20;7.20;;;24.00;98.30;;;;;;5023023;28;20474;-68
2023/05/02 11:06:35;;;;;;;8.30;7.50;;;24.30;98.40;;;;;;5027650;28;20546;-67
2023/05/02 11:09:35;;;;;;;7.97;7.17;;;24.50;98.30;;;;;;5026269;28;20464;-70
2023/05/02 11:12:04;;;;;;;9.53;7.00;;;24.30;97.20;;;;;;5026427;28;20496;-69
2023/05/02 11:14:47;;;;;;;6.70;6.07;;;23.40;98.70;;;;;;5030688;28;20474;-69
2023/05/02 11:17:14;;;;;;;7.53;6.47;;;22.60;99.10;;;;;;5029752;28;20490;-66
2023/05/02 11:20:26;;;;;;;7.47;6.73;;;22.10;99.00;;;;;;5021178;28;20922;-68
2023/05/02 11:22:58;;;;;;;9.90;6.83;;;21.50;98.90;;;;;;5023667;28;20548;-68
2023/05/02 11:25:32;;;;;;;8.30;7.17;;;21.10;99.90;;;;;;5030023;28;20995;-68
2023/05/02 11:28:01;;;;;;;7.50;5.90;;;21.00;99.80;;;;;;5030518;28;20479;-68
2023/05/02 11:30:42;;;;;;;8.07;6.90;;;20.90;99.10;;;;;;5030050;28;20466;-69
2023/05/02 11:33:17;;;;;;;10.30;9.20;;;20.40;98.40;;;;;;5029668;28;20546;-68
2023/05/02 11:35:45;;;;;;;9.60;7.03;;;20.00;98.80;;;;;;5030480;28;20485;-68
2023/05/02 11:38:14;;;;;;;7.67;6.87;;;19.70;99.90;;;;;;5022247;28;20830;-68
2023/05/02 11:40:41;;;;;;;9.70;7.40;;;19.50;99.90;;;;;;5022552;28;20464;-68
2023/05/02 11:43:16;;;;;;;12.77;8.10;;;19.20;99.90;;;;;;5030314;28;20496;-68
2023/05/02 11:45:43;;;;;;;8.37;6.93;;;19.20;99.90;;;;;;5022494;28;20480;-68
2023/05/02 11:48:12;;;;;;;11.13;7.87;;;19.90;99.90;;;;;;5029882;28;20480;-68
2023/05/02 11:50:42;;;;;;;8.83;7.50;;;20.70;99.60;;;;;;5022472;28;21258;-68
2023/05/02 11:53:13;;;;;;;9.97;7.97;;;21.60;99.10;;;;;;5030129;28;20874;-68
2023/05/02 11:55:46;;;;;;;7.60;6.53;;;22.50;99.10;;;;;;5020223;28;20951;-69
2023/05/02 11:58:15;;;;;;;8.53;7.33;;;23.40;97.50;;;;;;5019880;28;20463;-68
2023/05/02 12:00:45;;;;;;;7.57;6.63;;;23.80;97.40;;;;;;5022112;28;20928;-67
2023/05/02 12:03:29;;;;;;;9.30;8.10;;;24.10;96.70;;;;;;5022506;28;20543;-69
2023/05/02 12:05:56;;;;;;;8.93;8.03;;;24.00;95.40;;;;;;5032433;28;20487;-69
2023/05/02 12:08:25;;;;;;;7.77;6.97;;;23.50;94.20;;;;;;5029007;28;20875;-68
2023/05/02 12:10:54;;;;;;;8.17;7.37;;;22.80;95.90;;;;;;5028995;28;20525;-69
2023/05/02 12:13:23;;;;;;;8.47;7.67;;;22.30;97.20;;;;;;5028806;28;20470;-68
2023/05/02 12:15:52;;;;;;;9.83;8.50;;;22.60;97.30;;;;;;5029575;28;20482;-68
2023/05/02 12:18:22;;;;;;;9.30;8.33;;;23.10;94.50;;;;;;5028863;28;20515;-67
2023/05/02 12:20:50;;;;;;;9.13;8.20;;;23.60;96.20;;;;;;5029658;28;20482;-68
2023/05/02 12:23:17;;;;;;;11.30;10.10;;;23.60;96.40;;;;;;5020498;28;20492;-68
2023/05/02 12:25:44;;;;;;;9.73;8.60;;;22.80;96.30;;;;;;5029175;28;20495;-67
2023/05/02 12:28:11;;;;;;;9.50;8.20;;;22.40;96.80;;;;;;5028547;28;20560;-68
2023/05/02 12:30:40;;;;;;;9.13;8.20;;;22.60;98.10;;;;;;5028749;28;20472;-68
2023/05/02 12:33:07;;;;;;;8.53;7.27;;;23.20;95.10;;;;;;5028986;28;20472;-68
2023/05/02 12:35:35;;;;;;;7.77;7.00;;;23.80;97.20;;;;;;5027429;28;20480;-67
2023/05/02 12:38:13;;;;;;;8.30;7.50;;;24.30;95.90;;;;;;5023471;28;20456;-68
2023/05/02 12:40:47;;;;;;;8.57;7.60;;;24.90;95.50;;;;;;5028545;28;20467;-68
2023/05/02 12:43:13;;;;;;;11.67;9.20;;;25.10;95.00;;;;;;5028910;28;20472;-68
2023/05/02 12:45:42;;;;;;;8.20;7.40;;;25.20;94.20;;;;;;5028318;28;20848;-67
2023/05/02 12:48:20;;;;;;;11.80;9.03;;;25.30;94.70;;;;;;5021768;28;20495;-68
2023/05/02 12:50:47;;;;;;;9.53;8.13;;;25.10;95.40;;;;;;5020297;28;20465;-69
2023/05/02 12:53:13;;;;;;;9.57;8.60;;;25.20;94.80;;;;;;5004324;28;20467;-68
2023/05/02 12:55:41;;;;;;;10.30;9.23;;;25.30;94.90;;;;;;5027692;28;21061;-68
2023/05/02 12:58:09;;;;;;;10.70;8.93;;;25.40;94.80;;;;;;5029019;28;20567;-67
2023/05/02 13:00:38;;;;;;;9.20;8.13;;;25.50;94.20;;;;;;5026924;28;20472;-68
2023/05/02 13:03:06;;;;;;;10.57;9.47;;;25.40;94.40;;;;;;5028695;28;20504;-70
2023/05/02 13:05:33;;;;;;;11.33;9.63;;;25.20;94.60;;;;;;5028367;28;20493;-68
2023/05/02 13:08:00;;;;;;;10.43;8.40;;;24.80;93.90;;;;;;5028829;28;20498;-68